METAR UND TAF INFORMATION

METAR FOR LEAS
ADDS - METARS form results

(0218 UTC 26 June 2022)
Data provider http://aviationweather.gov/metar/data/
 
METAR text: LEAS 260200Z AUTO 23005KT 9999 SCT026 BKN041 BKN069 13/11 Q1015
Conditions at: LEAS (ASTURIAS/AVILES , ES) observed 0200 UTC 26 June 2022
Temperature: 13.0°C (55°F)
Dewpoint: 11.0°C (52°F) [RH = 88%]
Pressure (altimeter): 29.97 inches Hg (1015.0 mb)
Winds: from the SW (230 degrees) at 6 MPH (5 knots; 2.6 m/s)
Visibility: 6 or more miles (10+ km)
Ceiling: 4100 feet AGL
Clouds: scattered clouds at 2600 feet AGL
broken clouds at 4100 feet AGL
broken clouds at 6900 feet AGL
Weather: no significant weather observed at this time

METAR text: LEAS 260130Z AUTO 23004KT 9999 SCT050 SCT066 BKN087 13/11 Q1015
Conditions at: LEAS (ASTURIAS/AVILES , ES) observed 0130 UTC 26 June 2022
Temperature: 13.0°C (55°F)
Dewpoint: 11.0°C (52°F) [RH = 88%]
Pressure (altimeter): 29.97 inches Hg (1015.0 mb)
Winds: from the SW (230 degrees) at 5 MPH (4 knots; 2.1 m/s)
Visibility: 6 or more miles (10+ km)
Ceiling: 8700 feet AGL
Clouds: scattered clouds at 5000 feet AGL
scattered clouds at 6600 feet AGL
broken clouds at 8700 feet AGL
Weather: no significant weather observed at this time

Forecast for: LEAS (ASTURIAS/AVILES , ES)
Text: TAF LEAS 252000Z 2521/2621 29009KT 9999 SCT030 TX17/2612Z TN09/2605Z
Forecast period: 2100 UTC 25 June 2022 to 2100 UTC 26 June 2022
Forecast type: FROM: standard forecast or significant change
Winds: from the WNW (290 degrees) at 10 MPH (9 knots; 4.6 m/s)
Visibility: 6 or more miles (10+ km)
Ceiling: at least 12,000 feet AGL
Clouds: scattered clouds at 3000 feet AGL
Weather: no significant weather forecast for this period

 FLUGHAFENKARTE

 RUNWAY INFORMATION
Runway 11 Runway length 7218 ft Runway width 148 ft
Runway elevation 399 ft Runway displaced threshold 0 ft Runway heading 109
Runway 29 Runway length 7218 ft Runway width 148 ft
Runway elevation 399 ft Runway displaced threshold 0 ft Runway heading 289

 AIRPORT FREQUENCIES
Type APP Name APP Frequency 118.15 MHZ
Type GND Name GND Frequency 121.7 MHZ
Type TWR Name TWR Frequency 118.15 MHZ

 AIRPORT NEAR NAVIGATION AIDS
Type NDB Name Asturias Frequency 325 KHZ
Type NDB Name Asturias Frequency 387 KHZ
Type VOR-DME Name Asturias Frequency 112400 KHZ